Terminal Aerodrome Forecast
Issued by NWS Wakefield, VA

Home | Current Version | Previous Version | Text Only | Print | Product List | Glossary On
Versions: 1 2 3 4 5 6 7 8 9 10 11 12 13 14 15
000
FTUS41 KAKQ 222100 AAA
TAFECG
TAF AMD
KECG 222128Z 2221/2318 02009KT 5SM BR OVC004
      TEMPO 2221/2224 P6SM NSW
     FM230000 01005KT 2SM -DZ BR OVC004
     FM230300 01003KT 1SM -DZ BR OVC003
     FM231400 03003KT 2SM -DZ BR OVC005=

USA.gov is the U.S. government's official web portal to all federal, state and local government web resources and services.